Knottsville, Kentucky
Current Conditions -  °F | °C
As of 1:56 AM on Saturday 20 Dec 2014 (Local Time) from KOWB Reporting Station
Broken Clouds Broken Clouds  
Wind Chill: 26°   Ceiling: 6500
Heat Index: 32°   Visibility: 10mi
Dew Point: 25°   Wind: 6mph
Humidity: 76%   Direction: 50°NE
Pressure: 30.27"   Gusts: NA
Location:  37.7285°N, 86.9409°W
Report Text: KOWB 200756Z AUTO 05005KT 10SM BKN065 00/M04 A3027 RMK AO2 TSNO T00001038 BKN V OVC UPE17 P0000 SLP254
Loading
Personal Weather Stations






























Interactive Weather Map New forecast layout! Learn more

10-Day Weather Forecast

Advertisements
Track Severe Weather on mobile